createdAt,value
2022-12-25T00:02:07.427Z,101101.84
2022-12-25T00:06:19.570Z,101103.41
2022-12-25T00:10:31.268Z,101079.78
2022-12-25T00:14:42.997Z,101115.72
2022-12-25T00:18:56.650Z,101086.84
2022-12-25T00:23:08.360Z,101100.53
2022-12-25T00:27:20.100Z,101092.94
2022-12-25T00:31:31.942Z,101053.94
2022-12-25T00:35:44.043Z,101093.16
2022-12-25T00:39:55.728Z,101097.31
2022-12-25T00:44:08.797Z,101062.06
2022-12-25T00:48:20.510Z,101085.38
2022-12-25T00:52:35.625Z,101088.06
2022-12-25T00:56:47.609Z,101088.69
2022-12-25T01:01:00.664Z,101087.66
2022-12-25T01:05:12.321Z,101081.91
2022-12-25T01:09:56.244Z,101083.13
2022-12-25T01:14:08.274Z,101106.47
2022-12-25T01:18:21.656Z,101057.38
2022-12-25T01:22:33.369Z,101093.66
2022-12-25T01:26:45.037Z,101102.16
2022-12-25T01:30:56.811Z,101108.75
2022-12-25T01:35:08.879Z,101100.69
2022-12-25T01:39:20.589Z,101107.91
2022-12-25T01:43:34.234Z,101096.19
2022-12-25T01:47:46.123Z,101114.13
2022-12-25T01:52:03.221Z,101085.22
2022-12-25T01:56:15.033Z,101066.88
2022-12-25T02:00:26.735Z,101102.16
2022-12-25T02:05:01.375Z,101109.78
2022-12-25T02:09:13.564Z,101120.31
2022-12-25T02:13:25.351Z,101112.47
2022-12-25T02:17:53.725Z,101124.88
2022-12-25T02:22:42.450Z,101116.41
2022-12-25T02:27:02.764Z,101103.81
2022-12-25T02:31:26.117Z,101092.66
2022-12-25T02:35:38.081Z,101096.41
2022-12-25T02:40:00.519Z,101083.84
2022-12-25T02:44:37.904Z,101094.56
2022-12-25T02:49:16.253Z,101091.22
2022-12-25T02:53:47.682Z,101108.75
2022-12-25T02:58:23.949Z,101095.34
2022-12-25T03:02:55.736Z,101085.66
2022-12-25T03:07:12.337Z,101077.63
2022-12-25T03:11:33.216Z,101078.88
2022-12-25T03:16:04.976Z,101035.16
2022-12-25T03:20:35.276Z,101062.78
2022-12-25T03:25:07.026Z,101045.47
2022-12-25T03:29:37.200Z,101005.06
2022-12-25T03:34:29.860Z,101040.72
2022-12-25T03:39:23.075Z,101031.03
2022-12-25T03:44:35.388Z,101020.94
2022-12-25T03:49:11.056Z,101031.84
2022-12-25T03:54:21.448Z,101040.13
2022-12-25T03:58:51.853Z,101035.38
2022-12-25T04:03:22.449Z,101044.66
2022-12-25T04:07:52.642Z,101033.31
2022-12-25T04:12:23.440Z,101026.91
2022-12-25T04:16:53.631Z,101042.19
2022-12-25T04:21:23.777Z,101026.09
2022-12-25T04:25:54.038Z,101031.25
2022-12-25T04:30:24.915Z,101042.97
2022-12-25T04:34:55.209Z,101041.94
2022-12-25T04:39:07.023Z,101043.59
2022-12-25T04:43:18.660Z,101057.00
2022-12-25T04:47:30.512Z,101038.66
2022-12-25T04:51:42.212Z,101050.19
2022-12-25T04:56:01.527Z,101046.06
2022-12-25T05:00:13.624Z,101033.06
2022-12-25T05:04:25.328Z,101021.97
2022-12-25T05:08:37.122Z,101020.53
2022-12-25T05:12:48.858Z,101004.03
2022-12-25T05:17:00.619Z,101016.59
2022-12-25T05:21:12.945Z,101012.09
2022-12-25T05:25:24.758Z,101004.88
2022-12-25T05:29:36.534Z,101006.91
2022-12-25T05:33:52.358Z,101003.59
2022-12-25T05:38:05.064Z,101009.38
2022-12-25T05:42:16.876Z,100988.56
2022-12-25T05:46:28.636Z,100993.91
2022-12-25T05:50:40.788Z,101003.81
2022-12-25T05:54:52.578Z,100985.88
2022-12-25T05:59:04.442Z,100955.38
2022-12-25T06:03:18.949Z,100970.84
2022-12-25T06:07:30.880Z,100961.31
2022-12-25T06:11:42.520Z,100981.53
2022-12-25T06:15:57.319Z,100953.25
2022-12-25T06:20:09.743Z,100974.13
2022-12-25T06:24:22.668Z,100976.22
2022-12-25T06:28:34.825Z,100957.66
2022-12-25T06:32:46.522Z,100946.34
2022-12-25T06:37:00.616Z,100958.06
2022-12-25T06:41:15.296Z,100962.41
2022-12-25T06:45:27.333Z,100944.09
2022-12-25T06:49:39.127Z,100931.94
2022-12-25T06:53:52.386Z,100952.31
2022-12-25T06:58:04.229Z,100924.91
2022-12-25T07:02:21.808Z,100917.69
2022-12-25T07:06:34.149Z,100918.13
2022-12-25T07:10:45.818Z,100905.34
2022-12-25T07:14:57.500Z,100885.78
2022-12-25T07:19:11.496Z,100879.19
2022-12-25T07:23:25.691Z,100925.94
2022-12-25T07:27:37.589Z,100917.28
2022-12-25T07:31:51.755Z,100917.69
2022-12-25T07:36:03.896Z,100935.00
2022-12-25T07:40:15.657Z,100944.88
2022-12-25T07:44:27.420Z,100933.94
2022-12-25T07:48:39.254Z,100937.88
2022-12-25T07:52:51.582Z,100946.13
2022-12-25T07:57:03.422Z,100927.34
2022-12-25T08:01:19.436Z,100932.91
2022-12-25T08:05:32.828Z,100937.47
2022-12-25T08:09:44.727Z,100936.44
2022-12-25T08:13:56.696Z,100930.03
2022-12-25T08:18:08.553Z,100942.38
2022-12-25T08:22:20.236Z,100967.13
2022-12-25T08:26:32.041Z,100954.75
2022-12-25T08:30:43.865Z,100959.28
2022-12-25T08:34:55.748Z,100947.13
2022-12-25T08:39:08.323Z,100948.09
2022-12-25T08:43:20.077Z,100923.00
2022-12-25T08:47:31.917Z,100923.00
2022-12-25T08:51:44.813Z,100935.72
2022-12-25T08:56:01.120Z,100924.78
2022-12-25T09:00:13.340Z,100936.53
2022-12-25T09:04:27.289Z,100943.56
2022-12-25T09:08:44.193Z,100954.66
2022-12-25T09:13:00.225Z,100947.84
2022-12-25T09:17:12.086Z,100942.88
2022-12-25T09:21:23.887Z,100931.56
2022-12-25T09:25:35.615Z,100924.13
2022-12-25T09:29:50.346Z,100929.69
2022-12-25T09:34:03.174Z,100939.31
2022-12-25T09:38:14.904Z,100940.00
2022-12-25T09:42:31.421Z,100947.41
2022-12-25T09:46:55.380Z,100969.44
2022-12-25T09:51:13.177Z,100954.44
2022-12-25T09:55:26.736Z,100935.41
2022-12-25T09:59:47.475Z,100925.28
2022-12-25T10:04:29.581Z,100920.47
2022-12-25T10:09:09.761Z,100918.03
2022-12-25T10:13:48.722Z,100912.81
2022-12-25T10:18:41.677Z,100922.06
2022-12-25T10:22:58.804Z,100922.06
2022-12-25T10:27:20.566Z,100918.72
2022-12-25T10:31:36.818Z,100888.22
2022-12-25T10:35:51.624Z,100885.78
2022-12-25T10:40:18.103Z,100866.41
2022-12-25T10:44:30.340Z,100880.59
2022-12-25T10:48:47.548Z,100868.25
2022-12-25T10:53:09.353Z,100870.94
2022-12-25T10:57:23.379Z,100852.81
2022-12-25T11:01:35.388Z,100871.72
2022-12-25T11:05:51.486Z,100864.91
2022-12-25T11:10:26.223Z,100861.41
2022-12-25T11:14:37.960Z,100825.50
2022-12-25T11:18:52.548Z,100811.91
2022-12-25T11:23:10.414Z,100832.69
2022-12-25T11:27:33.552Z,100818.50
2022-12-25T11:31:46.479Z,100816.66
2022-12-25T11:36:01.123Z,100786.00
2022-12-25T11:40:20.013Z,100791.53
2022-12-25T11:44:56.796Z,100765.16
2022-12-25T11:49:16.325Z,100742.28
2022-12-25T11:53:30.962Z,100762.63
2022-12-25T11:57:46.821Z,100759.97
2022-12-25T12:02:10.080Z,100753.16
2022-12-25T12:06:43.708Z,100735.63
2022-12-25T12:11:18.718Z,100755.53
2022-12-25T12:15:41.262Z,100733.94
2022-12-25T12:19:52.946Z,100733.63
2022-12-25T12:24:11.763Z,100726.41
2022-12-25T12:28:27.800Z,100719.31
2022-12-25T12:32:44.254Z,100736.16
2022-12-25T12:37:05.411Z,100721.28
2022-12-25T12:41:18.172Z,100713.22
2022-12-25T12:45:40.296Z,100716.09
2022-12-25T12:49:58.737Z,100706.63
2022-12-25T12:54:25.430Z,100709.47
2022-12-25T12:58:45.093Z,100694.59
2022-12-25T13:03:26.495Z,100694.84
2022-12-25T13:07:59.374Z,100704.47
2022-12-25T13:12:12.884Z,100690.88
2022-12-25T13:16:36.890Z,100675.75
2022-12-25T13:20:56.492Z,100683.66
2022-12-25T13:25:20.951Z,100677.25
2022-12-25T13:29:37.079Z,100677.41
2022-12-25T13:34:03.569Z,100677.63
2022-12-25T13:38:18.185Z,100662.28
2022-12-25T13:42:39.972Z,100650.72
2022-12-25T13:46:51.964Z,100652.56
2022-12-25T13:51:03.708Z,100630.72
2022-12-25T13:55:23.846Z,100634.59
2022-12-25T13:59:37.713Z,100632.97
2022-12-25T14:03:49.441Z,100638.13
2022-12-25T14:08:04.956Z,100625.56
2022-12-25T14:12:19.429Z,100644.91
2022-12-25T14:16:31.487Z,100632.16
2022-12-25T14:20:55.429Z,100613.56
2022-12-25T14:25:15.025Z,100636.84
2022-12-25T14:29:32.466Z,100614.00
2022-12-25T14:33:45.601Z,100618.28
2022-12-25T14:38:02.660Z,100617.00
2022-12-25T14:42:26.245Z,100614.78
2022-12-25T14:46:38.053Z,100616.41
2022-12-25T14:51:15.952Z,100621.31
2022-12-25T14:55:29.819Z,100620.41
2022-12-25T14:59:41.538Z,100624.00
2022-12-25T15:04:07.301Z,100625.78
2022-12-25T15:08:22.857Z,100614.81
2022-12-25T15:12:34.466Z,100614.81
2022-12-25T15:16:50.248Z,100616.25
2022-12-25T15:21:02.599Z,100622.88
2022-12-25T15:25:17.107Z,100621.47
2022-12-25T15:30:07.809Z,100639.75
2022-12-25T15:34:05.410Z,100628.84
2022-12-25T15:38:17.008Z,100618.34
2022-12-25T15:42:28.593Z,100610.28
2022-12-25T15:46:40.209Z,100630.88
2022-12-25T15:50:51.893Z,100608.19
2022-12-25T15:55:03.717Z,100615.41
2022-12-25T15:59:17.042Z,100619.16
2022-12-25T16:03:29.169Z,100612.75
2022-12-25T16:07:40.952Z,100597.91
2022-12-25T16:11:52.549Z,100589.00
2022-12-25T16:16:05.030Z,100569.63
2022-12-25T16:20:16.747Z,100559.44
2022-12-25T16:24:28.391Z,100544.22
2022-12-25T16:28:40.012Z,100505.81
2022-12-25T16:32:51.844Z,100539.22
2022-12-25T16:37:04.334Z,100536.97
2022-12-25T16:41:16.339Z,100536.16
2022-12-25T16:45:28.203Z,100541.97
2022-12-25T16:49:39.993Z,100534.94
2022-12-25T16:53:53.230Z,100546.72
2022-12-25T16:58:06.158Z,100571.63
2022-12-25T17:02:19.785Z,100564.47
2022-12-25T17:06:31.537Z,100553.06
2022-12-25T17:10:43.160Z,100536.50
2022-12-25T17:14:54.793Z,100528.66
2022-12-25T17:19:12.844Z,100532.50
2022-12-25T17:23:24.565Z,100544.06
2022-12-25T17:27:36.246Z,100541.00
2022-12-25T17:31:48.269Z,100550.38
2022-12-25T17:36:04.446Z,100553.28
2022-12-25T17:40:16.042Z,100553.88
2022-12-25T17:44:27.643Z,100553.44
2022-12-25T17:48:39.266Z,100552.38
2022-12-25T17:52:52.499Z,100561.03
2022-12-25T17:57:04.159Z,100553.44
2022-12-25T18:01:16.633Z,100559.78
2022-12-25T18:05:28.539Z,100562.53
2022-12-25T18:09:40.196Z,100544.56
2022-12-25T18:13:53.552Z,100561.63
2022-12-25T18:18:05.827Z,100552.63
2022-12-25T18:22:17.454Z,100559.25
2022-12-25T18:26:29.090Z,100546.88
2022-12-25T18:30:42.248Z,100534.72
2022-12-25T18:34:54.973Z,100535.53
2022-12-25T18:39:06.639Z,100536.47
2022-12-25T18:43:18.360Z,100551.41
2022-12-25T18:47:30.058Z,100544.41
2022-12-25T18:51:41.779Z,100565.81
2022-12-25T18:56:15.265Z,100573.19
2022-12-25T19:00:28.152Z,100570.59
2022-12-25T19:04:40.201Z,100580.66
2022-12-25T19:08:52.381Z,100562.31
2022-12-25T19:13:04.145Z,100533.44
2022-12-25T19:17:17.518Z,100527.34
2022-12-25T19:21:29.450Z,100552.97
2022-12-25T19:25:41.124Z,100514.00
2022-12-25T19:29:52.796Z,100522.09
2022-12-25T19:34:29.314Z,100534.19
2022-12-25T19:38:41.875Z,100522.56
2022-12-25T19:42:53.737Z,100510.94
2022-12-25T19:47:05.655Z,100534.00
2022-12-25T19:51:23.179Z,100528.47
2022-12-25T19:55:34.802Z,100536.97
2022-12-25T19:59:46.429Z,100526.03
2022-12-25T20:03:58.029Z,100540.84
2022-12-25T20:08:10.484Z,100531.16
2022-12-25T20:12:22.160Z,100537.72
2022-12-25T20:16:37.798Z,100531.75
2022-12-25T20:20:49.576Z,100535.72
2022-12-25T20:25:01.364Z,100534.53
2022-12-25T20:29:13.071Z,100538.41
2022-12-25T20:33:25.152Z,100540.13
2022-12-25T20:37:36.813Z,100557.56
2022-12-25T20:41:48.462Z,100554.66
2022-12-25T20:46:00.172Z,100544.22
2022-12-25T20:50:11.823Z,100571.94
2022-12-25T20:54:23.510Z,100573.22
2022-12-25T20:58:35.317Z,100566.88
2022-12-25T21:02:47.081Z,100585.47
2022-12-25T21:06:58.791Z,100573.69
2022-12-25T21:11:11.495Z,100574.13
2022-12-25T21:15:24.643Z,100569.63
2022-12-25T21:19:36.454Z,100584.47
2022-12-25T21:23:48.346Z,100578.88
2022-12-25T21:27:59.979Z,100579.72
2022-12-25T21:32:30.252Z,100588.44
2022-12-25T21:36:41.850Z,100595.06
2022-12-25T21:40:53.514Z,100627.38
2022-12-25T21:45:05.460Z,100617.97
2022-12-25T21:49:36.990Z,100629.06
2022-12-25T21:53:48.575Z,100625.78
2022-12-25T21:58:00.521Z,100615.28
2022-12-25T22:02:12.354Z,100607.22
2022-12-25T22:06:42.650Z,100614.47
2022-12-25T22:10:54.261Z,100616.31
2022-12-25T22:15:09.500Z,100619.00
2022-12-25T22:19:39.717Z,100640.25
2022-12-25T22:23:51.360Z,100634.75
2022-12-25T22:28:03.007Z,100645.19
2022-12-25T22:32:16.161Z,100646.75
2022-12-25T22:36:27.857Z,100653.56
2022-12-25T22:40:39.518Z,100644.69
2022-12-25T22:44:51.352Z,100642.00
2022-12-25T22:49:03.172Z,100606.53
2022-12-25T22:53:14.946Z,100606.03
2022-12-25T22:57:26.629Z,100619.91
2022-12-25T23:01:38.789Z,100608.34
2022-12-25T23:05:55.297Z,100605.47
2022-12-25T23:10:07.590Z,100611.78
2022-12-25T23:14:37.843Z,100603.13
2022-12-25T23:19:08.014Z,100606.41
2022-12-25T23:23:38.381Z,100611.31
2022-12-25T23:27:50.055Z,100614.00
2022-12-25T23:32:04.088Z,100601.41
2022-12-25T23:36:15.770Z,100593.97
2022-12-25T23:40:27.404Z,100604.97
2022-12-25T23:44:38.975Z,100613.56
2022-12-25T23:48:50.629Z,100617.06
2022-12-25T23:53:02.213Z,100623.56
2022-12-25T23:57:13.780Z,100632.31
